Time;durP1;ratioP1;P1;durP2;ratioP2;P2;SDS_P1;SDS_P2;PMS_P1;PMS_P2;Temp;Humidity;BMP_temperature;BMP_pressure;BME280_temperature;BME280_humidity;BME280_pressure;Samples;Min_cycle;Max_cycle;Signal;HPM_P1;HPM_P2
2022/11/29 05:57:04;;;;;;;19.27;12.60;;;9.80;87.20;;;;;;6218815;22;20059;-73
2022/11/29 05:59:32;;;;;;;18.95;13.00;;;9.80;87.50;;;;;;6156167;23;20387;-75
2022/11/29 06:02:04;;;;;;;17.85;12.02;;;9.80;87.70;;;;;;6186096;23;20107;-75
2022/11/29 06:04:54;;;;;;;17.52;12.30;;;9.80;87.60;;;;;;6186325;23;20072;-75
2022/11/29 06:07:50;;;;;;;19.15;11.85;;;9.80;86.60;;;;;;6159729;23;20024;-76
2022/11/29 06:10:27;;;;;;;16.13;12.05;;;9.80;86.20;;;;;;6159862;23;20510;-74
2022/11/29 06:13:14;;;;;;;16.30;11.73;;;9.80;87.20;;;;;;6209690;23;20012;-75
2022/11/29 06:15:39;;;;;;;20.27;12.55;;;9.70;86.60;;;;;;6186149;23;20009;-75
2022/11/29 06:18:36;;;;;;;16.17;11.65;;;9.70;87.00;;;;;;6186034;23;20479;-76
2022/11/29 06:21:11;;;;;;;21.05;12.25;;;9.70;86.80;;;;;;6185893;23;20052;-74
2022/11/29 06:24:12;;;;;;;17.55;11.95;;;9.70;86.80;;;;;;6159550;23;20009;-77
2022/11/29 06:26:50;;;;;;;17.27;12.85;;;9.70;87.00;;;;;;6183286;23;20009;-75
2022/11/29 06:29:17;;;;;;;16.63;12.35;;;9.70;86.90;;;;;;6185849;23;20013;-76
2022/11/29 06:31:50;;;;;;;18.05;12.82;;;9.70;87.20;;;;;;6185983;23;19997;-76
2022/11/29 06:34:47;;;;;;;18.65;12.93;;;9.70;87.30;;;;;;6209477;23;20005;-76
2022/11/29 06:37:22;;;;;;;19.88;12.57;;;9.70;87.60;;;;;;6185938;23;20009;-76
2022/11/29 06:39:48;;;;;;;20.60;14.00;;;9.70;88.20;;;;;;6185713;23;20032;-75
2022/11/29 06:42:13;;;;;;;20.92;13.23;;;9.70;87.30;;;;;;6185819;23;20033;-76
2022/11/29 06:44:39;;;;;;;20.00;13.23;;;9.70;87.80;;;;;;6186101;23;20005;-75
2022/11/29 06:47:11;;;;;;;18.38;12.27;;;9.80;87.80;;;;;;6159503;23;20092;-75
2022/11/29 06:49:49;;;;;;;18.35;12.57;;;9.70;87.90;;;;;;6185502;23;20097;-76
2022/11/29 06:52:39;;;;;;;19.13;13.32;;;9.70;87.90;;;;;;6159194;23;20041;-76
2022/11/29 06:55:40;;;;;;;17.60;11.68;;;9.80;87.40;;;;;;6208758;23;20001;-75
2022/11/29 06:58:18;;;;;;;16.92;11.57;;;9.90;88.10;;;;;;6094520;23;20400;-75
2022/11/29 07:01:01;;;;;;;16.98;12.23;;;10.00;86.10;;;;;;6148500;23;20013;-76
2022/11/29 07:03:33;;;;;;;17.20;11.88;;;10.10;85.80;;;;;;6155118;23;19998;-77
2022/11/29 07:06:17;;;;;;;16.40;11.80;;;10.20;86.40;;;;;;6155719;23;20069;-76
2022/11/29 07:08:44;;;;;;;17.45;11.98;;;10.20;85.30;;;;;;6155468;23;20406;-75
2022/11/29 07:11:12;;;;;;;16.38;11.95;;;10.30;86.00;;;;;;6153730;23;20084;-76
2022/11/29 07:13:38;;;;;;;18.80;12.10;;;10.40;86.10;;;;;;6153687;23;20056;-76
2022/11/29 07:16:16;;;;;;;18.90;11.70;;;10.50;85.80;;;;;;6154925;23;20319;-76
2022/11/29 07:19:06;;;;;;;21.27;12.10;;;10.60;84.80;;;;;;6155119;23;20334;-74
2022/11/29 07:21:53;;;;;;;17.23;12.05;;;10.60;84.40;;;;;;6154861;23;20005;-76
2022/11/29 07:24:34;;;;;;;16.48;11.82;;;10.70;84.60;;;;;;6154789;23;20059;-76
2022/11/29 07:27:18;;;;;;;18.15;12.40;;;10.70;83.80;;;;;;6153587;23;20018;-75
2022/11/29 07:30:09;;;;;;;15.98;10.88;;;10.80;84.40;;;;;;6153190;23;20005;-76
2022/11/29 07:33:03;;;;;;;18.33;10.80;;;10.80;83.60;;;;;;6154915;23;20012;-75
2022/11/29 07:36:10;;;;;;;16.77;10.38;;;10.80;83.20;;;;;;6154879;23;20009;-76
2022/11/29 07:39:09;;;;;;;21.05;10.32;;;10.80;82.90;;;;;;6152929;23;20021;-75
2022/11/29 07:41:59;;;;;;;21.80;10.32;;;10.80;82.70;;;;;;6152988;23;20033;-75
2022/11/29 07:45:07;;;;;;;20.23;9.60;;;10.80;82.50;;;;;;6154127;23;20414;-75
2022/11/29 07:47:32;;;;;;;19.17;10.15;;;10.80;82.30;;;;;;6154107;23;20001;-75
2022/11/29 07:49:58;;;;;;;17.77;10.38;;;10.80;82.50;;;;;;6152889;23;20020;-75
2022/11/29 07:52:24;;;;;;;20.67;10.82;;;10.80;82.40;;;;;;6154325;23;20017;-76
2022/11/29 07:54:49;;;;;;;16.15;9.43;;;10.80;82.40;;;;;;6152744;23;20494;-75
2022/11/29 07:57:15;;;;;;;18.77;11.80;;;10.80;82.70;;;;;;6154656;23;20085;-77
2022/11/29 07:59:41;;;;;;;16.95;11.15;;;10.90;82.50;;;;;;6183867;23;20021;-75
2022/11/29 08:02:06;;;;;;;16.17;11.48;;;10.90;82.40;;;;;;6184511;23;20072;-77
2022/11/29 08:04:32;;;;;;;16.25;10.35;;;10.90;82.30;;;;;;6184466;23;20001;-75
2022/11/29 08:06:59;;;;;;;16.52;10.40;;;11.00;82.30;;;;;;6184131;23;20080;-76
2022/11/29 08:09:25;;;;;;;12.77;9.85;;;11.00;82.40;;;;;;6208006;23;20425;-76
2022/11/29 08:11:51;;;;;;;15.85;9.90;;;11.00;81.80;;;;;;6158935;23;20063;-75
2022/11/29 08:14:16;;;;;;;13.77;8.82;;;11.10;81.50;;;;;;6184337;23;20084;-76
2022/11/29 08:16:42;;;;;;;17.23;8.93;;;11.00;80.50;;;;;;6157978;23;20059;-76
2022/11/29 08:19:08;;;;;;;12.88;8.07;;;11.10;80.20;;;;;;6184539;23;20159;-76
2022/11/29 08:21:33;;;;;;;13.05;6.93;;;11.10;80.00;;;;;;6157618;23;20009;-75
2022/11/29 08:23:59;;;;;;;13.07;6.85;;;11.10;77.70;;;;;;6207337;23;20144;-75
2022/11/29 08:26:25;;;;;;;16.05;6.90;;;11.10;77.60;;;;;;6184086;23;20330;-76
2022/11/29 08:28:51;;;;;;;15.90;7.32;;;11.10;77.50;;;;;;6157709;23;20072;-76
2022/11/29 08:31:19;;;;;;;12.85;6.95;;;11.20;77.20;;;;;;6184055;23;20005;-76
2022/11/29 08:33:45;;;;;;;14.30;6.85;;;11.20;76.70;;;;;;6157446;23;20023;-74
2022/11/29 08:36:13;;;;;;;11.95;6.97;;;11.30;76.20;;;;;;6157288;23;20021;-73
2022/11/29 08:38:39;;;;;;;15.68;7.57;;;11.30;76.00;;;;;;6184318;23;20001;-77
2022/11/29 08:41:07;;;;;;;12.38;7.05;;;11.30;75.90;;;;;;6184224;23;20039;-77
2022/11/29 08:43:34;;;;;;;10.52;6.50;;;11.40;75.40;;;;;;6184155;23;19997;-76
2022/11/29 08:46:00;;;;;;;11.57;7.00;;;11.40;75.10;;;;;;6184020;23;20012;-75
2022/11/29 08:48:26;;;;;;;11.88;7.47;;;11.50;75.30;;;;;;6183652;23;19997;-75
2022/11/29 08:50:53;;;;;;;12.27;7.15;;;11.50;75.40;;;;;;6157321;23;20005;-76
2022/11/29 08:56:04;;;;;;;12.52;8.02;;;11.50;75.10;;;;;;6183631;23;20028;-75
2022/11/29 08:58:30;;;;;;;13.40;8.38;;;11.60;75.40;;;;;;6184199;23;20021;-78
2022/11/29 09:00:56;;;;;;;12.88;8.32;;;11.70;75.60;;;;;;6184352;23;20012;-76
2022/11/29 09:06:14;;;;;;;15.27;8.30;;;11.70;75.20;;;;;;6183882;23;20019;-76
2022/11/29 09:08:42;;;;;;;;;;;11.80;75.20;;;;;;6157950;23;20005;-77
2022/11/29 09:11:21;;;;;;;13.30;7.78;;;11.90;74.60;;;;;;6157218;23;19904;-76
2022/11/29 09:13:48;;;;;;;14.05;7.85;;;11.90;74.70;;;;;;6157169;23;20341;-75
2022/11/29 09:16:17;;;;;;;11.38;7.32;;;12.00;74.70;;;;;;6183997;23;20013;-75
2022/11/29 09:18:43;;;;;;;14.05;7.72;;;12.10;74.20;;;;;;6157994;23;20005;-75
2022/11/29 09:21:11;;;;;;;10.88;7.43;;;12.10;73.80;;;;;;6184229;23;19997;-77
2022/11/29 09:23:38;;;;;;;14.55;8.18;;;12.20;73.80;;;;;;6183924;23;20005;-74
2022/11/29 09:26:05;;;;;;;11.73;7.75;;;12.20;73.50;;;;;;6157445;23;20084;-75
2022/11/29 09:28:32;;;;;;;12.48;7.78;;;12.30;73.50;;;;;;6184206;23;20028;-74
2022/11/29 09:31:12;;;;;;;13.65;7.38;;;12.40;73.20;;;;;;6157403;23;20318;-75
2022/11/29 09:33:38;;;;;;;13.27;9.48;;;12.40;73.50;;;;;;6183819;23;20398;-75
2022/11/29 09:36:06;;;;;;;16.35;9.20;;;12.50;73.10;;;;;;6183455;23;20037;-76
2022/11/29 09:38:33;;;;;;;25.75;9.20;;;12.50;73.00;;;;;;6156874;23;20140;-75
2022/11/29 09:41:17;;;;;;;13.75;8.30;;;12.60;72.90;;;;;;6183468;23;20432;-76
2022/11/29 09:43:48;;;;;;;16.13;8.60;;;12.60;72.60;;;;;;6183926;23;20056;-74
2022/11/29 09:46:16;;;;;;;13.40;8.63;;;12.70;72.40;;;;;;6183897;23;20044;-76
2022/11/29 09:48:57;;;;;;;17.63;8.73;;;12.70;72.20;;;;;;6157418;23;20009;-75
2022/11/29 09:51:38;;;;;;;14.15;9.00;;;12.70;72.10;;;;;;6183590;23;20008;-76
2022/11/29 09:54:32;;;;;;;13.75;9.27;;;12.70;72.10;;;;;;6183617;23;20076;-75
2022/11/29 09:56:57;;;;;;;16.95;9.70;;;12.70;72.00;;;;;;6157313;23;20017;-75
2022/11/29 09:59:29;;;;;;;17.60;8.48;;;12.70;72.10;;;;;;6156921;23;20225;-78
2022/11/29 10:02:44;;;;;;;15.43;8.18;;;12.70;72.20;;;;;;6184151;23;20393;-75
2022/11/29 10:05:21;;;;;;;17.23;9.25;;;12.80;71.80;;;;;;6201345;23;20009;-77
2022/11/29 10:07:56;;;;;;;19.52;8.32;;;12.90;71.90;;;;;;6156995;23;20384;-76
2022/11/29 10:10:27;;;;;;;14.80;9.13;;;12.90;71.80;;;;;;6183819;23;20009;-76
2022/11/29 10:13:24;;;;;;;15.77;8.63;;;13.00;71.50;;;;;;6184014;23;20009;-76
2022/11/29 10:15:53;;;;;;;15.20;8.80;;;13.10;71.40;;;;;;6157209;23;20013;-75
2022/11/29 10:18:30;;;;;;;22.50;9.05;;;13.20;71.60;;;;;;6157121;23;20045;-77
2022/11/29 10:20:58;;;;;;;17.48;8.60;;;13.20;71.30;;;;;;6183811;23;20001;-75
2022/11/29 10:23:40;;;;;;;17.90;8.93;;;13.30;71.10;;;;;;6157016;23;20005;-78
2022/11/29 10:26:07;;;;;;;12.18;8.15;;;13.40;71.00;;;;;;6157106;23;20009;-77
2022/11/29 10:28:35;;;;;;;17.00;8.02;;;13.50;70.60;;;;;;6156876;23;20011;-75
2022/11/29 10:31:18;;;;;;;13.70;8.18;;;13.60;70.50;;;;;;6157170;23;20009;-76
2022/11/29 10:33:45;;;;;;;11.77;7.72;;;13.60;70.30;;;;;;6157391;23;20435;-77
2022/11/29 10:36:40;;;;;;;18.52;9.13;;;13.70;69.60;;;;;;6156550;23;20353;-75
2022/11/29 10:39:29;;;;;;;10.70;8.23;;;13.70;69.70;;;;;;6184415;23;20072;-74
2022/11/29 10:41:58;;;;;;;15.77;7.43;;;13.70;69.50;;;;;;6184855;23;20062;-75
2022/11/29 10:44:25;;;;;;;14.95;7.95;;;13.80;69.30;;;;;;6158828;23;20005;-76
2022/11/29 10:46:52;;;;;;;14.00;7.30;;;13.80;68.90;;;;;;6158287;23;20009;-75
2022/11/29 10:49:22;;;;;;;12.27;7.72;;;13.80;68.70;;;;;;6184885;23;20005;-75
2022/11/29 10:51:47;;;;;;;12.70;7.38;;;13.90;68.80;;;;;;6184917;23;20008;-76
2022/11/29 10:54:35;;;;;;;10.63;7.43;;;13.90;68.40;;;;;;6184819;23;20001;-76
2022/11/29 10:57:07;;;;;;;15.52;7.10;;;14.00;68.00;;;;;;6158451;23;20048;-75
2022/11/29 10:59:32;;;;;;;9.48;6.85;;;14.10;67.70;;;;;;6184782;23;20017;-77
2022/11/29 11:02:00;;;;;;;12.60;6.75;;;14.10;67.20;;;;;;6158819;23;20500;-75
2022/11/29 11:04:31;;;;;;;11.50;6.78;;;14.20;66.70;;;;;;6184622;23;20012;-76
2022/11/29 11:07:02;;;;;;;15.25;6.80;;;14.20;66.30;;;;;;6158641;23;20031;-75
2022/11/29 11:09:47;;;;;;;9.88;6.45;;;14.30;66.20;;;;;;6158813;23;20034;-77
2022/11/29 11:12:12;;;;;;;12.73;7.22;;;14.40;66.50;;;;;;6158462;23;20005;-75
2022/11/29 11:14:39;;;;;;;10.75;6.53;;;14.40;65.30;;;;;;6158137;23;20071;-76
2022/11/29 11:17:29;;;;;;;11.35;6.50;;;14.50;65.50;;;;;;6184575;23;20015;-76
2022/11/29 11:20:04;;;;;;;12.48;6.63;;;14.60;65.00;;;;;;6184573;23;20430;-75
2022/11/29 11:22:32;;;;;;;10.27;6.38;;;14.60;64.80;;;;;;6158109;23;20048;-75
2022/11/29 11:25:07;;;;;;;10.82;5.60;;;14.70;64.20;;;;;;6184333;23;20076;-76
2022/11/29 11:27:40;;;;;;;10.15;6.25;;;14.80;63.60;;;;;;6184822;23;20012;-77
2022/11/29 11:30:27;;;;;;;9.75;5.93;;;15.00;63.30;;;;;;6157810;23;20445;-76
2022/11/29 11:33:24;;;;;;;9.80;5.40;;;15.10;63.10;;;;;;6208218;23;20112;-77
2022/11/29 11:36:20;;;;;;;11.10;5.50;;;15.20;63.10;;;;;;6158184;23;20013;-76
2022/11/29 11:39:18;;;;;;;10.13;5.85;;;15.30;62.80;;;;;;6158076;23;20009;-77
2022/11/29 11:44:31;;;;;;;11.75;6.13;;;15.50;62.00;;;;;;6185426;23;20020;-76
2022/11/29 11:46:59;;;;;;;11.48;6.05;;;15.60;61.80;;;;;;6184496;23;20033;-76
2022/11/29 11:49:44;;;;;;;11.38;5.82;;;15.60;61.30;;;;;;6184958;23;20001;-76
2022/11/29 11:52:23;;;;;;;10.50;6.22;;;15.70;61.40;;;;;;6184880;23;20023;-75
2022/11/29 11:54:58;;;;;;;10.52;5.15;;;15.80;61.70;;;;;;6184814;23;20008;-77
2022/11/29 11:57:26;;;;;;;9.23;5.93;;;15.80;60.90;;;;;;6157838;23;20047;-76
2022/11/29 11:59:54;;;;;;;10.35;5.90;;;15.70;61.00;;;;;;6184675;23;20005;-75
2022/11/29 12:02:49;;;;;;;8.05;5.50;;;15.70;61.10;;;;;;6158799;23;20056;-75
2022/11/29 12:05:17;;;;;;;11.32;5.65;;;15.80;61.10;;;;;;6172025;23;20016;-76
2022/11/29 12:07:48;;;;;;;10.55;5.60;;;15.70;60.20;;;;;;6184958;23;20001;-75
2022/11/29 12:10:23;;;;;;;12.40;5.72;;;15.70;60.40;;;;;;6184663;23;20008;-78
2022/11/29 12:12:50;;;;;;;12.98;6.13;;;15.60;60.00;;;;;;6158399;23;20005;-76
2022/11/29 12:15:29;;;;;;;10.20;5.47;;;15.50;60.00;;;;;;6157737;23;20016;-76
2022/11/29 12:18:15;;;;;;;10.77;5.82;;;15.60;60.30;;;;;;6158283;23;20017;-75
2022/11/29 12:21:06;;;;;;;10.32;4.63;;;15.60;59.80;;;;;;6158479;23;20311;-76
2022/11/29 12:23:45;;;;;;;8.30;4.63;;;15.50;59.40;;;;;;6157887;23;20009;-76
2022/11/29 12:26:14;;;;;;;8.35;5.50;;;15.60;59.40;;;;;;6157847;23;20425;-76
2022/11/29 12:28:41;;;;;;;9.68;5.68;;;15.70;59.10;;;;;;6158018;23;20009;-76
2022/11/29 12:31:25;;;;;;;8.63;5.10;;;15.80;59.00;;;;;;6207708;23;20013;-77
2022/11/29 12:34:03;;;;;;;8.32;5.22;;;16.00;58.50;;;;;;6184319;23;20059;-75
2022/11/29 12:36:34;;;;;;;10.52;5.18;;;16.10;58.00;;;;;;6157768;23;20472;-72
2022/11/29 12:39:12;;;;;;;9.18;5.25;;;16.10;57.30;;;;;;6184284;23;19997;-75
2022/11/29 12:41:53;;;;;;;10.68;5.53;;;16.20;57.30;;;;;;6184382;23;20001;-75
2022/11/29 12:44:21;;;;;;;12.00;5.18;;;16.20;57.00;;;;;;6157797;23;20342;-74
2022/11/29 12:46:56;;;;;;;9.38;5.15;;;16.30;57.10;;;;;;6184412;23;20076;-76
2022/11/29 12:49:31;;;;;;;10.15;5.45;;;16.30;57.10;;;;;;6157296;23;20055;-75
2022/11/29 12:52:23;;;;;;;10.20;5.28;;;16.20;56.90;;;;;;6184283;23;20001;-75
2022/11/29 12:55:03;;;;;;;11.82;6.05;;;16.20;56.60;;;;;;6182125;23;20060;-77
2022/11/29 12:58:11;;;;;;;9.68;5.53;;;16.10;56.80;;;;;;6157552;23;20028;-77
2022/11/29 13:00:54;;;;;;;9.07;5.32;;;16.10;56.70;;;;;;6184671;23;20021;-76
2022/11/29 13:03:29;;;;;;;10.32;5.60;;;16.10;57.00;;;;;;6157898;23;20016;-75
2022/11/29 13:06:21;;;;;;;10.05;4.82;;;16.10;56.90;;;;;;6184100;23;20001;-75
2022/11/29 13:09:08;;;;;;;11.20;5.05;;;16.10;56.30;;;;;;6184688;23;20005;-75
2022/11/29 13:11:39;;;;;;;13.85;4.95;;;16.10;56.20;;;;;;6184377;23;20087;-75
2022/11/29 13:14:23;;;;;;;6.97;4.18;;;16.00;55.20;;;;;;6184042;23;20080;-77
2022/11/29 13:17:04;;;;;;;6.53;4.03;;;16.00;55.30;;;;;;6194905;23;20067;-77
2022/11/29 13:19:48;;;;;;;9.27;4.30;;;15.90;54.70;;;;;;6191162;23;20032;-74
2022/11/29 13:22:29;;;;;;;8.05;4.15;;;15.90;54.90;;;;;;6186060;23;19997;-74
2022/11/29 13:25:00;;;;;;;8.45;3.90;;;15.90;54.60;;;;;;6157516;23;20037;-75
2022/11/29 13:27:33;;;;;;;7.68;4.25;;;15.90;54.40;;;;;;6157889;23;20388;-77
2022/11/29 13:30:00;;;;;;;8.60;5.00;;;15.90;54.70;;;;;;6158233;23;20468;-76
2022/11/29 13:32:29;;;;;;;8.20;4.25;;;15.90;52.90;;;;;;6184581;23;20001;-77
2022/11/29 13:35:00;;;;;;;7.80;4.13;;;15.90;54.20;;;;;;6184684;23;20016;-75
2022/11/29 13:37:45;;;;;;;8.20;4.20;;;16.00;53.00;;;;;;6184837;23;20009;-76
2022/11/29 13:40:26;;;;;;;9.93;4.05;;;16.00;53.90;;;;;;6158203;23;20322;-77
2022/11/29 13:43:07;;;;;;;7.75;4.43;;;16.00;53.80;;;;;;6184674;23;20036;-76
2022/11/29 13:46:03;;;;;;;7.55;4.28;;;16.00;53.80;;;;;;6157984;23;20013;-77
2022/11/29 13:48:49;;;;;;;6.28;3.70;;;16.10;53.70;;;;;;6175898;23;20429;-77
2022/11/29 13:51:36;;;;;;;7.05;3.70;;;16.30;52.90;;;;;;6158325;23;20066;-76
2022/11/29 13:54:05;;;;;;;7.28;3.42;;;16.30;51.40;;;;;;6184174;23;20001;-78
2022/11/29 13:56:45;;;;;;;8.90;4.00;;;16.20;51.40;;;;;;6184553;23;20009;-76
2022/11/29 13:59:32;;;;;;;9.07;4.20;;;16.20;52.60;;;;;;6157565;23;20028;-77
2022/11/29 14:01:58;;;;;;;8.98;3.70;;;16.20;51.20;;;;;;6157774;23;20036;-76
2022/11/29 14:04:29;;;;;;;6.65;3.47;;;16.10;51.60;;;;;;6157945;23;20084;-75
2022/11/29 14:07:11;;;;;;;9.18;3.75;;;16.10;51.90;;;;;;6184112;23;20005;-76
2022/11/29 14:09:42;;;;;;;7.80;3.90;;;16.00;52.90;;;;;;6184565;23;20303;-76
2022/11/29 14:12:53;;;;;;;8.45;4.07;;;15.90;52.80;;;;;;6184837;23;20005;-73
2022/11/29 14:15:27;;;;;;;8.18;3.80;;;15.90;52.80;;;;;;6152454;23;20019;-77
2022/11/29 14:17:57;;;;;;;7.65;3.90;;;15.90;51.80;;;;;;6186182;23;20025;-77
2022/11/29 14:20:23;;;;;;;8.13;3.88;;;15.80;51.80;;;;;;6186506;23;20484;-77
2022/11/29 14:23:35;;;;;;;9.95;4.15;;;15.80;51.90;;;;;;6159836;23;20005;-77
2022/11/29 14:26:01;;;;;;;7.45;3.80;;;15.70;51.60;;;;;;6171007;23;20024;-77
2022/11/29 14:28:37;;;;;;;8.65;3.97;;;15.70;52.20;;;;;;6160059;23;20006;-77
2022/11/29 14:31:08;;;;;;;7.47;3.88;;;15.70;52.00;;;;;;6159563;23;20017;-77
2022/11/29 14:33:46;;;;;;;6.97;3.58;;;15.60;51.80;;;;;;6160018;23;20005;-77
2022/11/29 14:36:17;;;;;;;6.80;3.92;;;15.60;51.90;;;;;;6186325;23;20012;-76
2022/11/29 14:39:01;;;;;;;7.38;3.20;;;15.50;52.50;;;;;;6186073;23;20109;-76
2022/11/29 14:41:51;;;;;;;6.60;3.55;;;15.50;53.10;;;;;;6185761;23;20433;-77
2022/11/29 14:44:23;;;;;;;8.63;3.80;;;15.50;53.40;;;;;;6159601;23;20422;-75
2022/11/29 14:47:05;;;;;;;6.97;3.40;;;15.40;52.00;;;;;;6186240;23;20052;-77
2022/11/29 14:49:42;;;;;;;8.80;3.75;;;15.40;53.40;;;;;;6185906;23;20001;-76
2022/11/29 14:52:14;;;;;;;6.47;3.67;;;15.40;53.60;;;;;;6186373;23;20005;-78
2022/11/29 14:55:04;;;;;;;10.48;3.95;;;15.30;52.10;;;;;;6185928;23;20042;-75
2022/11/29 14:57:48;;;;;;;6.80;3.20;;;15.30;52.30;;;;;;6185686;23;20023;-76
2022/11/29 15:00:37;;;;;;;5.95;3.08;;;15.20;52.20;;;;;;6159603;23;20035;-76
2022/11/29 15:03:29;;;;;;;6.60;3.65;;;15.20;53.20;;;;;;6186089;23;20001;-76
2022/11/29 15:06:03;;;;;;;5.78;3.30;;;15.20;53.80;;;;;;6186016;23;19997;-76
2022/11/29 15:08:35;;;;;;;5.75;3.13;;;15.10;53.70;;;;;;6185848;23;20349;-76
2022/11/29 15:11:33;;;;;;;8.43;3.50;;;15.00;53.80;;;;;;6159042;23;20005;-75
2022/11/29 15:14:22;;;;;;;12.63;4.40;;;15.00;53.80;;;;;;6161865;23;20009;-76
2022/11/29 15:17:08;;;;;;;8.20;4.55;;;14.90;53.40;;;;;;6185505;23;20088;-76
2022/11/29 15:20:01;;;;;;;7.97;4.40;;;14.80;54.20;;;;;;6159301;23;20020;-77
2022/11/29 15:22:41;;;;;;;8.75;4.35;;;14.80;54.70;;;;;;6185599;23;20252;-75
2022/11/29 15:25:13;;;;;;;11.88;4.53;;;14.70;55.20;;;;;;6185007;23;20005;-76
2022/11/29 15:27:57;;;;;;;10.65;4.20;;;14.60;55.30;;;;;;6158783;23;20005;-75
2022/11/29 15:30:29;;;;;;;9.32;4.40;;;14.50;55.60;;;;;;6158680;23;20013;-76
2022/11/29 15:32:57;;;;;;;9.20;4.22;;;14.40;55.90;;;;;;6185332;23;20008;-78
2022/11/29 15:35:23;;;;;;;10.50;4.85;;;14.40;56.30;;;;;;6185349;23;20005;-76
2022/11/29 15:37:50;;;;;;;10.88;5.13;;;14.30;56.60;;;;;;6185042;23;20013;-76
2022/11/29 15:40:22;;;;;;;7.93;5.07;;;14.20;56.70;;;;;;6185197;23;19997;-76
2022/11/29 15:42:52;;;;;;;14.80;5.68;;;14.20;56.60;;;;;;6158396;23;20013;-78
2022/11/29 15:45:52;;;;;;;9.65;5.10;;;14.20;57.10;;;;;;6158418;23;20012;-76
2022/11/29 15:48:31;;;;;;;9.27;4.95;;;14.10;57.20;;;;;;6184797;23;20001;-78
2022/11/29 15:51:10;;;;;;;9.52;4.88;;;14.00;57.40;;;;;;6185526;23;20032;-76
2022/11/29 15:53:46;;;;;;;10.07;5.40;;;14.00;57.70;;;;;;6184938;23;20009;-77
2022/11/29 15:56:38;;;;;;;11.68;5.13;;;14.00;57.80;;;;;;6157939;23;20464;-77
2022/11/29 15:59:25;;;;;;;8.57;4.80;;;13.90;58.00;;;;;;6184505;23;20025;-79
2022/11/29 16:01:55;;;;;;;14.95;5.15;;;13.80;57.90;;;;;;6158001;23;20086;-76
2022/11/29 16:04:23;;;;;;;12.52;5.63;;;13.80;58.00;;;;;;6184571;23;20001;-76
2022/11/29 16:06:50;;;;;;;9.38;5.13;;;13.80;58.00;;;;;;6184413;23;20031;-75
2022/11/29 16:09:28;;;;;;;15.05;5.00;;;13.70;57.90;;;;;;6184799;23;20001;-79
2022/11/29 16:11:54;;;;;;;11.45;5.20;;;13.70;58.10;;;;;;6184825;23;20057;-77
2022/11/29 16:14:23;;;;;;;9.55;5.32;;;13.60;58.10;;;;;;6184715;23;20005;-77
2022/11/29 16:16:51;;;;;;;11.32;5.95;;;13.60;58.00;;;;;;6184443;23;20020;-76
2022/11/29 16:19:23;;;;;;;16.27;6.20;;;13.60;58.10;;;;;;6184689;23;20437;-76
2022/11/29 16:22:25;;;;;;;11.75;5.80;;;13.60;58.50;;;;;;6208014;23;20009;-75
2022/11/29 16:24:56;;;;;;;20.25;7.30;;;13.50;58.40;;;;;;6174291;23;20021;-77
2022/11/29 16:27:23;;;;;;;11.18;5.72;;;13.50;58.60;;;;;;6184563;23;20001;-76
2022/11/29 16:29:51;;;;;;;16.08;8.13;;;13.50;58.60;;;;;;6184064;23;20040;-78
2022/11/29 16:32:30;;;;;;;12.63;7.45;;;13.40;58.70;;;;;;6184512;23;20353;-76
2022/11/29 16:35:16;;;;;;;14.65;7.30;;;13.40;59.00;;;;;;6157568;23;20004;-77
2022/11/29 16:37:43;;;;;;;11.65;6.70;;;13.30;59.20;;;;;;6157883;23;20025;-76
2022/11/29 16:40:20;;;;;;;16.02;7.53;;;13.30;59.20;;;;;;6184693;23;19997;-76
2022/11/29 16:43:52;;;;;;;13.30;8.10;;;13.30;59.60;;;;;;6184628;23;20005;-78
2022/11/29 16:46:21;;;;;;;13.88;7.85;;;13.20;60.00;;;;;;6121225;23;20036;-77
2022/11/29 16:48:51;;;;;;;14.25;7.60;;;13.20;60.00;;;;;;6184371;23;20076;-76
2022/11/29 16:51:46;;;;;;;13.23;8.35;;;13.20;60.20;;;;;;6158102;23;20009;-77
2022/11/29 16:54:23;;;;;;;19.77;8.35;;;13.20;60.50;;;;;;6180495;23;20437;-78
2022/11/29 16:56:50;;;;;;;18.42;8.60;;;13.10;60.60;;;;;;6184378;23;20036;-77
2022/11/29 16:59:16;;;;;;;22.85;9.85;;;13.10;60.90;;;;;;6157811;23;20041;-76
2022/11/29 17:01:43;;;;;;;17.92;8.70;;;13.10;61.20;;;;;;6184375;23;20001;-77
2022/11/29 17:04:08;;;;;;;15.57;9.80;;;13.00;61.60;;;;;;6157977;23;20084;-78
2022/11/29 17:06:34;;;;;;;20.88;10.52;;;13.00;61.80;;;;;;6184566;23;20087;-76
2022/11/29 17:09:00;;;;;;;19.55;10.00;;;13.00;62.10;;;;;;6207453;23;20012;-77
2022/11/29 17:11:26;;;;;;;19.15;9.98;;;12.90;62.20;;;;;;6184413;23;20005;-80
2022/11/29 17:13:52;;;;;;;16.38;10.05;;;12.90;62.60;;;;;;6207695;23;20389;-76
2022/11/29 17:16:20;;;;;;;17.23;9.93;;;12.90;62.70;;;;;;6184352;23;20005;-78
2022/11/29 17:18:46;;;;;;;21.15;10.60;;;12.80;62.70;;;;;;6184438;23;20005;-77
2022/11/29 17:21:30;;;;;;;18.83;11.80;;;12.80;63.10;;;;;;6184786;23;20448;-78
2022/11/29 17:23:56;;;;;;;19.17;10.65;;;12.80;63.60;;;;;;6184452;23;20001;-78
2022/11/29 17:26:22;;;;;;;15.27;9.80;;;12.80;63.50;;;;;;6157947;23;20019;-76
2022/11/29 17:28:49;;;;;;;18.80;11.10;;;12.70;63.70;;;;;;6158445;23;20504;-77
2022/11/29 17:31:20;;;;;;;20.98;12.00;;;12.70;64.10;;;;;;6184393;23;20080;-77
2022/11/29 17:33:47;;;;;;;19.13;11.38;;;12.70;64.10;;;;;;6184173;23;20004;-77
2022/11/29 17:36:15;;;;;;;19.23;12.00;;;12.70;64.40;;;;;;6184531;23;20005;-75
2022/11/29 17:38:43;;;;;;;18.65;11.93;;;12.70;64.40;;;;;;6207603;23;20019;-77
2022/11/29 17:41:15;;;;;;;18.27;10.70;;;12.70;64.50;;;;;;6184055;23;20008;-75
2022/11/29 17:43:41;;;;;;;19.35;11.55;;;12.70;64.60;;;;;;6207403;23;20005;-76
2022/11/29 17:46:12;;;;;;;18.02;11.38;;;12.70;64.50;;;;;;6158081;23;20092;-77
2022/11/29 17:48:38;;;;;;;19.95;11.13;;;12.70;64.40;;;;;;6158118;23;20009;-78
2022/11/29 17:51:06;;;;;;;19.02;11.93;;;12.70;64.60;;;;;;6184687;23;20448;-77
2022/11/29 17:53:32;;;;;;;22.67;11.18;;;12.70;64.50;;;;;;6184420;23;20001;-75
2022/11/29 17:56:06;;;;;;;14.90;10.52;;;12.60;64.80;;;;;;6184458;23;20153;-76
2022/11/29 17:58:32;;;;;;;20.23;10.52;;;12.60;65.00;;;;;;6207114;23;20049;-76
2022/11/29 18:01:20;;;;;;;19.63;12.52;;;12.50;65.00;;;;;;6183981;23;20088;-77
2022/11/29 18:03:46;;;;;;;23.58;13.23;;;12.50;65.10;;;;;;6208067;23;20015;-76
2022/11/29 18:06:17;;;;;;;17.42;11.85;;;12.50;65.40;;;;;;6207371;23;20008;-76
2022/11/29 18:08:45;;;;;;;19.33;11.27;;;12.50;65.30;;;;;;6207596;23;20028;-77
2022/11/29 18:11:17;;;;;;;19.50;11.48;;;12.50;65.40;;;;;;6183926;23;20029;-76
2022/11/29 18:13:42;;;;;;;21.38;11.85;;;12.50;65.50;;;;;;6184698;23;20001;-76
2022/11/29 18:16:15;;;;;;;22.58;12.13;;;12.50;65.70;;;;;;6184071;23;20024;-77
2022/11/29 18:18:42;;;;;;;23.05;12.55;;;12.50;65.80;;;;;;6183997;23;20009;-76
2022/11/29 18:21:09;;;;;;;21.60;12.57;;;12.40;65.70;;;;;;6208145;23;20073;-77
2022/11/29 18:23:38;;;;;;;24.15;13.43;;;12.40;65.70;;;;;;6184110;23;20008;-77
2022/11/29 18:26:07;;;;;;;18.40;12.27;;;12.40;65.80;;;;;;6183978;23;20303;-78
2022/11/29 18:28:35;;;;;;;19.25;13.07;;;12.40;66.00;;;;;;6207383;23;20071;-76
2022/11/29 18:31:22;;;;;;;20.42;12.65;;;12.40;66.30;;;;;;6184429;23;20362;-76
2022/11/29 18:33:50;;;;;;;20.50;13.20;;;12.40;66.40;;;;;;6184508;23;20002;-76
2022/11/29 18:36:19;;;;;;;19.05;12.73;;;12.40;66.40;;;;;;6184110;23;20079;-77
2022/11/29 18:38:45;;;;;;;20.80;13.60;;;12.30;66.40;;;;;;6207547;23;20020;-76
2022/11/29 18:41:17;;;;;;;21.25;13.10;;;12.30;67.20;;;;;;6157576;23;20087;-78
2022/11/29 18:43:44;;;;;;;21.27;14.07;;;12.30;66.70;;;;;;6207594;23;20017;-78
2022/11/29 18:46:17;;;;;;;21.48;14.93;;;12.30;66.90;;;;;;6184865;23;20358;-78
2022/11/29 18:48:44;;;;;;;;;;;12.20;66.80;;;;;;6207975;23;20009;-79
2022/11/29 18:51:13;;;;;;;22.35;14.13;;;12.20;67.20;;;;;;6184623;23;20309;-76
2022/11/29 18:53:39;;;;;;;30.65;14.73;;;12.20;67.00;;;;;;6207679;23;20016;-76
2022/11/29 18:56:21;;;;;;;20.80;14.98;;;12.20;67.20;;;;;;6184150;23;20008;-77
2022/11/29 18:58:53;;;;;;;22.65;15.20;;;12.20;67.60;;;;;;6208088;23;20017;-77
2022/11/29 19:01:19;;;;;;;23.70;15.15;;;12.10;67.50;;;;;;6209315;23;20005;-77
2022/11/29 19:03:49;;;;;;;28.50;16.52;;;12.10;67.50;;;;;;6185832;23;20441;-76
2022/11/29 19:06:19;;;;;;;24.48;14.98;;;12.10;67.80;;;;;;6186218;23;20452;-76
2022/11/29 19:08:46;;;;;;;24.65;15.63;;;12.10;67.80;;;;;;6186084;23;20024;-78
2022/11/29 19:11:17;;;;;;;23.67;14.85;;;12.10;68.10;;;;;;6209554;23;20002;-75
2022/11/29 19:13:44;;;;;;;25.95;15.10;;;12.10;68.10;;;;;;6209495;23;20009;-77
2022/11/29 19:16:13;;;;;;;22.75;14.48;;;12.00;68.20;;;;;;6186086;23;20365;-75
2022/11/29 19:18:39;;;;;;;21.10;14.23;;;12.00;68.10;;;;;;6186362;23;20001;-78
2022/11/29 19:21:07;;;;;;;22.60;16.00;;;12.00;68.30;;;;;;6186443;23;20008;-76
2022/11/29 19:23:33;;;;;;;32.63;15.93;;;12.00;68.40;;;;;;6185908;23;20033;-77